Time;durP1;ratioP1;P1;durP2;ratioP2;P2;SDS_P1;SDS_P2;PMS_P1;PMS_P2;Temp;Humidity;BMP_temperature;BMP_pressure;BME280_temperature;BME280_humidity;BME280_pressure;Samples;Min_cycle;Max_cycle;Signal;HPM_P1;HPM_P2
2023/10/30 00:01:51;;;;;;;;;;;;;;;25.26;42.35;99666.56;4196926;28;20356;-62
2023/10/30 00:03:52;;;;;;;;;;;;;;;25.25;42.50;99662.22;4214886;28;19931;-63
2023/10/30 00:05:55;;;;;;;;;;;;;;;25.25;42.48;99662.22;4197111;28;19924;-62
2023/10/30 00:07:57;;;;;;;;;;;;;;;25.24;42.23;99659.69;4214596;28;19934;-63
2023/10/30 00:09:58;;;;;;;;;;;;;;;25.25;42.37;99654.16;4214470;28;19924;-63
2023/10/30 00:12:01;;;;;;;;;;;;;;;25.25;42.50;99650.59;4214280;28;19928;-63
2023/10/30 00:14:04;;;;;;;;;;;;;;;25.25;42.34;99662.22;4214682;28;19970;-63
2023/10/30 00:16:05;;;;;;;;;;;;;;;25.26;42.45;99652.28;4214644;28;20404;-63
2023/10/30 00:18:07;;;;;;;;;;;;;;;25.27;42.58;99662.88;4214366;28;19924;-63
2023/10/30 00:20:09;;;;;;;;;;;;;;;25.27;42.55;99659.34;4214397;28;19924;-63
2023/10/30 00:22:11;;;;;;;;;;;;;;;25.29;42.27;99665.41;4214434;28;19924;-62
2023/10/30 00:24:12;;;;;;;;;;;;;;;25.29;42.45;99663.53;4214545;28;19966;-62
2023/10/30 00:26:14;;;;;;;;;;;;;;;25.28;42.06;99667.25;4214413;28;20066;-63
2023/10/30 00:28:16;;;;;;;;;;;;;;;25.28;42.15;99666.41;4195617;28;19928;-62
2023/10/30 00:30:18;;;;;;;;;;;;;;;25.27;42.24;99665.56;4214418;28;20024;-62
2023/10/30 00:32:19;;;;;;;;;;;;;;;25.25;42.19;99670.28;4214349;28;19924;-62
2023/10/30 00:34:21;;;;;;;;;;;;;;;25.25;42.25;99662.22;4214265;28;19953;-63
2023/10/30 00:36:22;;;;;;;;;;;;;;;25.25;42.35;99661.38;4214393;28;19924;-62
2023/10/30 00:38:24;;;;;;;;;;;;;;;25.26;42.18;99657.66;4214197;28;19924;-63
2023/10/30 00:40:26;;;;;;;;;;;;;;;25.27;42.28;99653.97;4214393;28;20027;-63
2023/10/30 00:42:28;;;;;;;;;;;;;;;25.27;42.24;99651.28;4213917;28;19923;-62
2023/10/30 00:44:30;;;;;;;;;;;;;;;25.28;42.33;99647.56;4214035;28;19924;-63
2023/10/30 00:46:31;;;;;;;;;;;;;;;25.27;42.22;99645.91;4214231;28;19928;-62
2023/10/30 00:48:38;;;;;;;;;;;;;;;25.26;42.46;99645.03;4213960;28;19924;-63
2023/10/30 00:50:44;;;;;;;;;;;;;;;25.26;42.19;99642.34;4213972;28;19976;-63
2023/10/30 00:52:46;;;;;;;;;;;;;;;25.27;42.46;99648.59;4214076;28;19956;-63
2023/10/30 00:54:47;;;;;;;;;;;;;;;25.27;42.11;99648.59;4214155;28;20450;-62
2023/10/30 00:56:49;;;;;;;;;;;;;;;25.26;42.39;99644.22;4195558;28;20007;-63
2023/10/30 00:58:51;;;;;;;;;;;;;;;25.25;42.37;99646.09;4214070;28;19924;-63
2023/10/30 01:00:57;;;;;;;;;;;;;;;25.25;42.31;99642.53;4213909;28;19930;-63
2023/10/30 01:02:59;;;;;;;;;;;;;;;25.27;42.37;99640.50;4214123;28;20023;-63
2023/10/30 01:05:00;;;;;;;;;;;;;;;25.27;42.08;99637.81;4213937;28;20330;-63
2023/10/30 01:07:03;;;;;;;;;;;;;;;25.29;42.42;99641.19;4213934;28;19935;-63
2023/10/30 01:09:04;;;;;;;;;;;;;;;25.29;42.38;99644.69;4213690;28;19930;-63
2023/10/30 01:11:10;;;;;;;;;;;;;;;25.28;42.26;99653.78;4213494;28;20026;-63
2023/10/30 01:13:12;;;;;;;;;;;;;;;25.28;42.36;99652.97;4213773;28;20027;-63
2023/10/30 01:15:15;;;;;;;;;;;;;;;25.28;42.33;99639.50;4213788;28;19928;-63
2023/10/30 01:17:19;;;;;;;;;;;;;;;25.27;42.16;99635.94;4213716;28;19924;-63
2023/10/30 01:19:20;;;;;;;;;;;;;;;25.26;42.39;99634.28;4195842;28;20009;-63
2023/10/30 01:21:22;;;;;;;;;;;;;;;25.25;42.46;99635.31;4213820;28;20317;-63
2023/10/30 01:23:23;;;;;;;;;;;;;;;25.26;42.25;99634.28;4213755;28;20010;-63
2023/10/30 01:25:25;;;;;;;;;;;;;;;25.28;42.45;99628.75;4213333;28;19924;-63
2023/10/30 01:27:27;;;;;;;;;;;;;;;25.28;42.20;99626.88;4213806;28;19930;-63
2023/10/30 01:29:29;;;;;;;;;;;;;;;25.29;42.30;99630.41;4213742;28;19999;-63
2023/10/30 01:31:30;;;;;;;;;;;;;;;25.29;42.28;99623.16;4213465;28;19930;-63
2023/10/30 01:33:32;;;;;;;;;;;;;;;25.31;42.10;99622.97;4213717;28;20481;-63
2023/10/30 01:35:34;;;;;;;;;;;;;;;25.29;42.11;99617.78;4213545;28;20308;-63
2023/10/30 01:37:35;;;;;;;;;;;;;;;25.30;42.17;99618.59;4213396;28;19931;-63
2023/10/30 01:39:37;;;;;;;;;;;;;;;25.30;42.01;99618.59;4196588;28;19971;-63
2023/10/30 01:41:40;;;;;;;;;;;;;;;25.30;42.20;99616.78;4218996;28;20313;-63
2023/10/30 01:43:41;;;;;;;;;;;;;;;25.28;42.36;99608.03;4219116;28;19924;-63
2023/10/30 01:45:48;;;;;;;;;;;;;;;25.28;42.17;99610.72;4219088;28;19924;-63
2023/10/30 01:47:55;;;;;;;;;;;;;;;25.29;42.15;99611.56;4218846;28;19937;-63
2023/10/30 01:50:02;;;;;;;;;;;;;;;25.29;42.23;99616.97;4219163;28;19950;-63
2023/10/30 01:52:04;;;;;;;;;;;;;;;25.30;42.25;99610.53;4219171;28;19930;-63
2023/10/30 01:54:07;;;;;;;;;;;;;;;25.30;42.33;99607.84;4218527;28;20022;-63
2023/10/30 01:56:09;;;;;;;;;;;;;;;25.29;42.26;99612.41;4219136;28;19924;-63
2023/10/30 01:58:10;;;;;;;;;;;;;;;25.31;42.04;99605.00;4219042;28;19994;-63
2023/10/30 02:00:12;;;;;;;;;;;;;;;25.30;42.19;99603.31;4218790;28;19931;-62
2023/10/30 02:02:14;;;;;;;;;;;;;;;25.29;42.11;99600.81;4218877;28;19931;-63
2023/10/30 02:04:16;;;;;;;;;;;;;;;25.28;42.04;99604.53;4219217;28;19927;-63
2023/10/30 02:06:17;;;;;;;;;;;;;;;25.26;42.24;99599.28;4219118;28;19962;-63
2023/10/30 02:08:20;;;;;;;;;;;;;;;25.27;42.39;99597.47;4218719;28;19930;-63
2023/10/30 02:10:21;;;;;;;;;;;;;;;25.27;42.18;99594.75;4218731;28;20031;-63
2023/10/30 02:12:28;;;;;;;;;;;;;;;25.28;42.32;99596.44;4218624;28;19924;-63
2023/10/30 02:14:30;;;;;;;;;;;;;;;25.30;42.30;99597.09;4219046;28;19923;-63
2023/10/30 02:16:31;;;;;;;;;;;;;;;25.30;42.21;99597.94;4218753;28;20026;-64
2023/10/30 02:18:33;;;;;;;;;;;;;;;25.30;41.93;99594.38;4218806;28;19935;-63
2023/10/30 02:20:34;;;;;;;;;;;;;;;25.30;42.19;99589.88;4218759;28;20393;-63
2023/10/30 02:22:36;;;;;;;;;;;;;;;25.30;41.96;99594.38;4218518;28;19928;-63
2023/10/30 02:24:37;;;;;;;;;;;;;;;25.29;42.24;99596.25;4218845;28;19924;-64
2023/10/30 02:26:39;;;;;;;;;;;;;;;25.28;42.15;99596.44;4218940;28;19924;-64
2023/10/30 02:28:41;;;;;;;;;;;;;;;25.28;42.22;99599.13;4218619;28;19956;-63
2023/10/30 02:30:42;;;;;;;;;;;;;;;25.28;42.11;99596.44;4218935;28;19939;-63
2023/10/30 02:32:45;;;;;;;;;;;;;;;25.27;42.28;99595.59;4218672;28;20293;-63
2023/10/30 02:34:46;;;;;;;;;;;;;;;25.28;42.12;99593.75;4218696;28;19924;-63
2023/10/30 02:36:48;;;;;;;;;;;;;;;25.28;42.18;99594.56;4218439;28;20018;-63
2023/10/30 02:38:50;;;;;;;;;;;;;;;25.29;42.20;99590.88;4218854;28;19924;-63
2023/10/30 02:40:51;;;;;;;;;;;;;;;25.30;42.26;99594.38;4218581;28;19924;-63
2023/10/30 02:42:53;;;;;;;;;;;;;;;25.31;42.03;99579.91;4200576;28;20129;-63
2023/10/30 02:44:54;;;;;;;;;;;;;;;25.30;42.09;99586.31;4218745;28;19924;-63
2023/10/30 02:46:56;;;;;;;;;;;;;;;25.29;42.09;99580.13;4200642;28;20043;-63
2023/10/30 02:48:58;;;;;;;;;;;;;;;25.30;41.90;99575.56;4218547;28;20401;-63
2023/10/30 02:50:59;;;;;;;;;;;;;;;25.29;41.90;99576.59;4217559;28;19924;-63
2023/10/30 02:53:01;;;;;;;;;;;;;;;25.28;41.92;99575.75;4215236;28;19924;-63
2023/10/30 02:55:03;;;;;;;;;;;;;;;25.28;42.10;99580.28;4215682;28;19931;-62
2023/10/30 02:57:10;;;;;;;;;;;;;;;25.28;42.14;99574.91;4215985;28;19931;-63
2023/10/30 02:59:11;;;;;;;;;;;;;;;25.28;42.08;99574.91;4215846;28;19937;-62
2023/10/30 03:01:13;;;;;;;;;;;;;;;25.29;42.28;99569.34;4215890;28;20018;-63
2023/10/30 03:03:14;;;;;;;;;;;;;;;25.30;42.08;99571.03;4215836;28;20282;-62
2023/10/30 03:05:17;;;;;;;;;;;;;;;25.31;42.26;99564.63;4215733;28;19978;-62
2023/10/30 03:07:18;;;;;;;;;;;;;;;25.31;42.08;99569.16;4215301;28;19967;-63
2023/10/30 03:09:20;;;;;;;;;;;;;;;25.32;42.04;99568.16;4215682;28;19978;-63
2023/10/30 03:11:21;;;;;;;;;;;;;;;25.32;42.06;99563.63;4215777;28;19924;-63
2023/10/30 03:13:23;;;;;;;;;;;;;;;25.31;42.06;99563.78;4215780;28;20315;-63
2023/10/30 03:15:24;;;;;;;;;;;;;;;25.30;42.13;99554.03;4215599;28;19953;-63
2023/10/30 03:17:26;;;;;;;;;;;;;;;25.30;41.88;99554.88;4215627;28;19958;-63
2023/10/30 03:19:28;;;;;;;;;;;;;;;25.28;41.88;99546.13;4215476;28;19935;-63
2023/10/30 03:21:29;;;;;;;;;;;;;;;25.29;41.98;99542.44;4215354;28;20384;-61
2023/10/30 03:23:36;;;;;;;;;;;;;;;25.30;42.15;99541.41;4215659;28;19924;-61
2023/10/30 03:25:37;;;;;;;;;;;;;;;25.31;41.86;99535.03;4215574;28;19931;-61
2023/10/30 03:27:39;;;;;;;;;;;;;;;25.30;41.90;99530.66;4215308;28;20088;-62
2023/10/30 03:29:41;;;;;;;;;;;;;;;25.31;42.07;99534.16;4215539;28;19930;-62
2023/10/30 03:31:42;;;;;;;;;;;;;;;25.31;41.88;99529.66;4215412;28;19937;-63
2023/10/30 03:33:44;;;;;;;;;;;;;;;25.31;41.86;99524.25;4215441;28;20014;-63
2023/10/30 03:35:45;;;;;;;;;;;;;;;25.31;41.77;99524.25;4214995;28;19928;-63
2023/10/30 03:37:47;;;;;;;;;;;;;;;25.31;41.65;99523.41;4215342;28;19963;-63
2023/10/30 03:39:49;;;;;;;;;;;;;;;25.31;41.94;99518.88;4215063;28;20015;-64
2023/10/30 03:41:51;;;;;;;;;;;;;;;25.30;42.05;99522.59;4197531;28;19925;-63
2023/10/30 03:43:52;;;;;;;;;;;;;;;25.30;41.88;99514.50;4215188;28;19924;-63
2023/10/30 03:45:53;;;;;;;;;;;;;;;25.30;41.79;99519.91;4215257;28;20319;-63
2023/10/30 03:47:55;;;;;;;;;;;;;;;25.30;41.78;99516.34;4214951;28;19979;-63
2023/10/30 03:49:57;;;;;;;;;;;;;;;25.30;42.04;99519.03;4214687;28;19924;-64
2023/10/30 03:51:58;;;;;;;;;;;;;;;25.32;41.76;99525.94;4215214;28;19977;-63
2023/10/30 03:54:00;;;;;;;;;;;;;;;25.32;41.71;99535.84;4215058;28;19924;-64
2023/10/30 03:56:08;;;;;;;;;;;;;;;25.34;41.90;99531.13;4215119;28;19977;-62
2023/10/30 03:58:10;;;;;;;;;;;;;;;25.34;41.69;99526.56;4214825;28;20365;-64
2023/10/30 04:00:11;;;;;;;;;;;;;;;25.34;41.57;99534.66;4215079;28;20361;-62
2023/10/30 04:02:13;;;;;;;;;;;;;;;25.32;41.68;99525.94;4214917;28;19924;-62
2023/10/30 04:04:15;;;;;;;;;;;;;;;25.32;41.60;99534.00;4214534;28;19924;-63
2023/10/30 04:06:16;;;;;;;;;;;;;;;25.32;41.91;99527.78;4215083;28;19924;-64
2023/10/30 04:08:18;;;;;;;;;;;;;;;25.30;41.92;99527.97;4215070;28;20421;-63
2023/10/30 04:10:20;;;;;;;;;;;;;;;25.30;41.66;99524.41;4214935;28;19924;-64
2023/10/30 04:12:21;;;;;;;;;;;;;;;25.31;41.80;99520.72;4214751;28;19959;-63
2023/10/30 04:14:23;;;;;;;;;;;;;;;25.31;41.85;99521.56;4214631;28;19924;-63
2023/10/30 04:16:29;;;;;;;;;;;;;;;25.32;41.97;99517.00;4214657;28;19924;-63
2023/10/30 04:18:31;;;;;;;;;;;;;;;25.32;41.90;99512.50;4214020;28;19931;-63
2023/10/30 04:20:32;;;;;;;;;;;;;;;25.32;41.73;99504.41;4214639;28;19924;-63
2023/10/30 04:22:34;;;;;;;;;;;;;;;25.32;41.89;99498.19;4214435;28;20323;-63
2023/10/30 04:24:35;;;;;;;;;;;;;;;25.32;41.54;99500.88;4214636;28;19933;-64
2023/10/30 04:26:37;;;;;;;;;;;;;;;25.30;41.86;99501.06;4196569;28;19952;-64
2023/10/30 04:28:39;;;;;;;;;;;;;;;25.29;41.86;99512.84;4214558;28;19995;-63
2023/10/30 04:30:40;;;;;;;;;;;;;;;25.28;41.56;99516.53;4214553;28;19924;-63
2023/10/30 04:32:42;;;;;;;;;;;;;;;25.29;41.57;99530.84;4214251;28;19930;-63
2023/10/30 04:34:43;;;;;;;;;;;;;;;25.30;41.80;99536.03;4214191;28;20454;-64
2023/10/30 04:36:45;;;;;;;;;;;;;;;25.31;41.64;99536.88;4214404;28;20027;-62
2023/10/30 04:38:49;;;;;;;;;;;;;;;25.33;41.89;99542.91;4214215;28;19931;-62
2023/10/30 04:40:51;;;;;;;;;;;;;;;25.33;41.90;99537.53;4214236;28;19924;-63
2023/10/30 04:42:52;;;;;;;;;;;;;;;25.32;41.89;99536.72;4214297;28;19938;-62
2023/10/30 04:44:55;;;;;;;;;;;;;;;25.32;41.77;99535.84;4214228;28;20026;-63
2023/10/30 04:46:56;;;;;;;;;;;;;;;25.31;41.77;99529.66;4214264;28;20494;-63
2023/10/30 04:48:58;;;;;;;;;;;;;;;25.15;41.44;99510.91;4213648;28;19931;-62
2023/10/30 04:51:00;;;;;;;;;;;;;;;25.29;41.91;99539.75;4214383;28;19924;-63
2023/10/30 04:53:01;;;;;;;;;;;;;;;25.28;41.91;99535.38;4214178;28;19924;-62
2023/10/30 04:55:03;;;;;;;;;;;;;;;25.29;41.62;99542.44;4214035;28;19935;-63
2023/10/30 04:57:05;;;;;;;;;;;;;;;25.30;41.71;99540.56;4213988;28;19950;-62
2023/10/30 04:59:07;;;;;;;;;;;;;;;25.30;41.68;99527.13;4214006;28;20019;-62
2023/10/30 05:01:09;;;;;;;;;;;;;;;25.30;41.80;99527.13;4214288;28;19924;-62
2023/10/30 05:03:10;;;;;;;;;;;;;;;25.31;41.56;99516.19;4213668;28;19931;-63
2023/10/30 05:05:13;;;;;;;;;;;;;;;25.32;41.73;99508.94;4214237;28;19928;-62
2023/10/30 05:07:14;;;;;;;;;;;;;;;25.32;41.53;99512.50;4213914;28;20028;-63
2023/10/30 05:09:16;;;;;;;;;;;;;;;25.32;41.50;99507.09;4213755;28;19931;-62
2023/10/30 05:11:18;;;;;;;;;;;;;;;25.32;41.56;99500.88;4213997;28;19924;-63
2023/10/30 05:13:20;;;;;;;;;;;;;;;25.32;41.59;99500.88;4213980;28;19925;-63
2023/10/30 05:15:21;;;;;;;;;;;;;;;25.31;41.80;99496.50;4213093;28;19924;-62
2023/10/30 05:17:23;;;;;;;;;;;;;;;25.31;41.72;99485.72;4213421;28;19924;-61
2023/10/30 05:19:25;;;;;;;;;;;;;;;25.31;41.79;99488.41;4213795;28;19962;-61
2023/10/30 05:21:27;;;;;;;;;;;;;;;25.30;41.84;99484.91;4213844;28;19969;-62
2023/10/30 05:23:28;;;;;;;;;;;;;;;25.30;41.70;99487.59;4212860;28;19931;-63
2023/10/30 05:25:30;;;;;;;;;;;;;;;25.31;41.73;99477.66;4213591;28;20381;-63
2023/10/30 05:27:44;;;;;;;;;;;;;;;25.32;41.86;99477.50;4213714;28;20392;-63
2023/10/30 05:29:46;;;;;;;;;;;;;;;25.33;41.54;99476.47;4213690;28;19935;-64
2023/10/30 05:31:48;;;;;;;;;;;;;;;25.33;41.63;99473.75;4213357;28;20029;-64
2023/10/30 05:33:50;;;;;;;;;;;;;;;25.32;41.53;99474.81;4213671;28;20450;-63
2023/10/30 05:35:52;;;;;;;;;;;;;;;25.31;41.70;99472.28;4213609;28;19964;-64
2023/10/30 05:37:53;;;;;;;;;;;;;;;25.32;41.56;99473.97;4213883;28;19931;-63
2023/10/30 05:39:55;;;;;;;;;;;;;;;25.31;41.83;99465.06;4213684;28;19993;-64
2023/10/30 05:41:58;;;;;;;;;;;;;;;25.31;41.80;99464.19;4213731;28;19924;-64
2023/10/30 05:44:00;;;;;;;;;;;;;;;25.31;41.84;99456.97;4213650;28;20031;-64
2023/10/30 05:46:02;;;;;;;;;;;;;;;25.30;41.92;99462.53;4213330;28;19927;-63
2023/10/30 05:48:04;;;;;;;;;;;;;;;25.31;41.78;99461.50;4213180;28;19925;-64
2023/10/30 05:50:06;;;;;;;;;;;;;;;25.32;41.86;99466.75;4213503;28;20027;-64
2023/10/30 05:52:09;;;;;;;;;;;;;;;25.32;41.67;99473.97;4213293;28;19933;-64
2023/10/30 05:54:11;;;;;;;;;;;;;;;25.32;41.70;99485.56;4214044;28;19975;-64
2023/10/30 05:56:12;;;;;;;;;;;;;;;25.34;41.47;99490.78;4213520;28;20390;-64
2023/10/30 05:58:14;;;;;;;;;;;;;;;25.34;41.38;99483.50;4213476;28;19932;-64
2023/10/30 06:00:15;;;;;;;;;;;;;;;25.33;41.87;99484.53;4213215;28;19932;-64
2023/10/30 06:02:17;;;;;;;;;;;;;;;25.32;41.55;99480.19;4195612;28;19974;-64
2023/10/30 06:04:19;;;;;;;;;;;;;;;25.33;41.63;99486.41;4213740;28;20369;-64
2023/10/30 06:06:21;;;;;;;;;;;;;;;25.31;41.85;99465.06;4213492;28;20439;-65
2023/10/30 06:08:23;;;;;;;;;;;;;;;25.31;41.85;99464.19;4213514;28;19924;-65
2023/10/30 06:10:25;;;;;;;;;;;;;;;25.31;41.56;99465.06;4213449;28;19928;-65
2023/10/30 06:12:27;;;;;;;;;;;;;;;25.31;41.59;99467.75;4213374;28;19930;-64
2023/10/30 06:14:28;;;;;;;;;;;;;;;25.32;41.85;99476.66;4213056;28;19924;-64
2023/10/30 06:16:30;;;;;;;;;;;;;;;25.32;41.65;99482.88;4213392;28;19971;-64
2023/10/30 06:18:31;;;;;;;;;;;;;;;25.33;41.81;99489.09;4213009;28;19931;-64
2023/10/30 06:20:33;;;;;;;;;;;;;;;25.33;41.84;99487.22;4213416;28;19928;-64
2023/10/30 06:22:34;;;;;;;;;;;;;;;25.32;41.90;99485.56;4195334;28;19942;-64
2023/10/30 06:24:36;;;;;;;;;;;;;;;25.30;41.93;99479.53;4213234;28;19932;-65
2023/10/30 06:26:38;;;;;;;;;;;;;;;25.30;41.63;99473.28;4213357;28;19928;-64
2023/10/30 06:28:40;;;;;;;;;;;;;;;25.28;41.97;99459.19;4216474;28;19935;-64
2023/10/30 06:30:41;;;;;;;;;;;;;;;25.26;41.99;99455.84;4216109;28;20316;-63
2023/10/30 06:32:44;;;;;;;;;;;;;;;25.27;41.97;99454.84;4216190;28;19930;-64
2023/10/30 06:34:45;;;;;;;;;;;;;;;25.29;41.96;99455.50;4216380;28;20389;-64
2023/10/30 06:36:47;;;;;;;;;;;;;;;25.29;41.85;99468.94;4216427;28;20292;-64
2023/10/30 06:38:49;;;;;;;;;;;;;;;25.30;41.98;99479.53;4216140;28;20431;-63
2023/10/30 06:40:51;;;;;;;;;;;;;;;25.32;41.89;99492.78;4216384;28;19955;-64
2023/10/30 06:42:52;;;;;;;;;;;;;;;25.32;41.72;99504.41;4216457;28;20319;-64
2023/10/30 06:44:54;;;;;;;;;;;;;;;25.32;41.65;99501.72;4215784;28;19925;-64
2023/10/30 06:46:57;;;;;;;;;;;;;;;25.31;41.88;99502.72;4216183;28;20335;-64
2023/10/30 06:48:59;;;;;;;;;;;;;;;25.30;41.99;99501.06;4215870;28;19930;-63
2023/10/30 06:51:01;;;;;;;;;;;;;;;25.29;41.84;99495.88;4216223;28;19970;-62
2023/10/30 06:53:05;;;;;;;;;;;;;;;25.27;41.96;99498.72;4215461;28;20593;-64
2023/10/30 06:55:06;;;;;;;;;;;;;;;25.28;42.15;99496.88;4215911;28;19928;-64
2023/10/30 06:57:08;;;;;;;;;;;;;;;25.29;41.91;99491.31;4216002;28;19932;-63
2023/10/30 06:59:12;;;;;;;;;;;;;;;25.30;41.98;99494.81;4215532;28;19924;-64
2023/10/30 07:01:14;;;;;;;;;;;;;;;25.32;42.08;99492.78;4216048;28;20376;-63
2023/10/30 07:03:16;;;;;;;;;;;;;;;25.32;42.08;99487.41;4198021;28;19963;-63
2023/10/30 07:05:19;;;;;;;;;;;;;;;25.32;41.95;99480.19;4215986;28;20320;-64
2023/10/30 07:07:21;;;;;;;;;;;;;;;25.32;42.06;99472.13;4216227;28;20357;-63
2023/10/30 07:09:22;;;;;;;;;;;;;;;25.31;41.83;99456.97;4215841;28;19924;-63
2023/10/30 07:11:24;;;;;;;;;;;;;;;25.31;41.98;99451.59;4215855;28;19924;-63
2023/10/30 07:13:25;;;;;;;;;;;;;;;25.31;41.97;99450.75;4215445;28;20380;-64
2023/10/30 07:15:27;;;;;;;;;;;;;;;25.29;42.16;99442.88;4215673;28;19978;-63
2023/10/30 07:17:29;;;;;;;;;;;;;;;25.27;42.17;99444.06;4215745;28;19924;-64
2023/10/30 07:19:31;;;;;;;;;;;;;;;25.27;42.28;99446.75;4215380;28;19985;-63
2023/10/30 07:21:32;;;;;;;;;;;;;;;25.28;42.18;99451.94;4215768;28;19928;-63
2023/10/30 07:23:34;;;;;;;;;;;;;;;25.31;42.28;99461.50;4215587;28;20379;-63
2023/10/30 07:25:35;;;;;;;;;;;;;;;25.32;41.83;99458.66;4215718;28;19959;-63
2023/10/30 07:27:37;;;;;;;;;;;;;;;25.33;41.79;99456.78;4214235;28;20026;-64
2023/10/30 07:29:38;;;;;;;;;;;;;;;25.33;41.97;99443.34;4215406;28;19981;-64
2023/10/30 07:31:40;;;;;;;;;;;;;;;25.33;42.04;99454.09;4215546;28;19924;-63
2023/10/30 07:33:41;;;;;;;;;;;;;;;25.32;42.08;99449.72;4215662;28;19924;-63
2023/10/30 07:35:43;;;;;;;;;;;;;;;25.31;42.01;99448.91;4215550;28;19977;-63
2023/10/30 07:37:44;;;;;;;;;;;;;;;25.30;42.19;99452.63;4214734;28;19924;-62
2023/10/30 07:39:46;;;;;;;;;;;;;;;25.30;41.84;99443.69;4215578;28;19950;-63
2023/10/30 07:41:48;;;;;;;;;;;;;;;25.29;41.85;99440.19;4214897;28;19924;-62
2023/10/30 07:43:49;;;;;;;;;;;;;;;25.29;42.23;99436.66;4215511;28;19963;-63
2023/10/30 07:45:51;;;;;;;;;;;;;;;25.29;42.00;99439.34;4215271;28;19924;-63
2023/10/30 07:47:53;;;;;;;;;;;;;;;25.30;42.01;99435.63;4215038;28;19924;-62
2023/10/30 07:49:54;;;;;;;;;;;;;;;25.30;42.27;99433.78;4215278;28;19924;-63
2023/10/30 07:51:56;;;;;;;;;;;;;;;25.31;42.15;99442.69;4215233;28;19924;-63
2023/10/30 07:53:58;;;;;;;;;;;;;;;25.31;41.90;99438.16;4215424;28;20061;-63
2023/10/30 07:55:59;;;;;;;;;;;;;;;25.31;42.02;99442.69;4214821;28;20411;-63
2023/10/30 07:58:03;;;;;;;;;;;;;;;25.30;42.05;99438.31;4215209;28;19928;-63
2023/10/30 08:00:05;;;;;;;;;;;;;;;25.30;42.04;99435.63;4215033;28;19928;-63
2023/10/30 08:02:07;;;;;;;;;;;;;;;25.28;41.90;99451.94;4214842;28;20015;-63
2023/10/30 08:04:09;;;;;;;;;;;;;;;25.27;41.97;99452.97;4215044;28;19924;-63
2023/10/30 08:06:11;;;;;;;;;;;;;;;25.27;41.96;99444.06;4215006;28;19928;-63
2023/10/30 08:08:13;;;;;;;;;;;;;;;25.27;42.23;99428.75;4214971;28;19924;-63
2023/10/30 08:10:15;;;;;;;;;;;;;;;25.27;42.04;99433.31;4214655;28;20022;-63
2023/10/30 08:12:17;;;;;;;;;;;;;;;25.29;42.29;99429.41;4214629;28;20044;-63
2023/10/30 08:14:18;;;;;;;;;;;;;;;25.30;41.92;99423.00;4214738;28;20010;-63
2023/10/30 08:16:20;;;;;;;;;;;;;;;25.31;42.12;99416.63;4214829;28;19924;-63
2023/10/30 08:18:22;;;;;;;;;;;;;;;25.31;42.34;99422.00;4214430;28;20035;-62
2023/10/30 08:20:23;;;;;;;;;;;;;;;25.31;41.96;99432.75;4214322;28;19924;-60
2023/10/30 08:22:25;;;;;;;;;;;;;;;25.30;42.05;99425.72;4196560;28;19996;-63
2023/10/30 08:24:27;;;;;;;;;;;;;;;25.30;42.27;99408.72;4214469;28;19928;-63
2023/10/30 08:26:29;;;;;;;;;;;;;;;25.28;42.17;99421.53;4214170;28;19924;-64
2023/10/30 08:28:30;;;;;;;;;;;;;;;25.28;42.29;99438.50;4214377;28;19924;-63
2023/10/30 08:30:32;;;;;;;;;;;;;;;25.32;42.27;99437.13;4214361;28;20001;-63
2023/10/30 08:32:39;;;;;;;;;;;;;;;25.35;42.19;99436.75;4214304;28;20264;-64
2023/10/30 08:34:41;;;;;;;;;;;;;;;25.40;42.11;99438.09;4214359;28;19955;-64
2023/10/30 08:36:42;;;;;;;;;;;;;;;25.43;41.98;99440.41;4214323;28;19977;-64
2023/10/30 08:38:44;;;;;;;;;;;;;;;25.46;41.88;99435.50;4213905;28;19931;-64
2023/10/30 08:40:46;;;;;;;;;;;;;;;25.48;41.82;99428.09;4213643;28;19939;-64
2023/10/30 08:42:48;;;;;;;;;;;;;;;25.48;42.00;99425.41;4214336;28;19970;-63
2023/10/30 08:44:55;;;;;;;;;;;;;;;25.47;42.26;99420.19;4214161;28;20048;-65
2023/10/30 08:46:57;;;;;;;;;;;;;;;25.46;42.08;99419.34;4201680;28;19931;-65
2023/10/30 08:48:58;;;;;;;;;;;;;;;25.46;42.19;99413.16;4207466;28;19931;-65
2023/10/30 08:51:03;;;;;;;;;;;;;;;25.45;41.98;99411.47;4213366;28;20019;-61
2023/10/30 08:53:04;;;;;;;;;;;;;;;25.45;42.02;99416.84;4205541;28;20271;-61
2023/10/30 08:55:06;;;;;;;;;;;;;;;25.37;41.96;99406.97;4204711;28;19985;-66
2023/10/30 08:57:07;;;;;;;;;;;;;;;25.48;41.99;99411.09;4204092;28;19963;-63
2023/10/30 08:59:18;;;;;;;;;;;;;;;25.50;41.95;99393.72;4196808;28;19932;-63
2023/10/30 09:01:20;;;;;;;;;;;;;;;25.54;42.32;99396.06;4197221;28;19924;-62
2023/10/30 09:03:21;;;;;;;;;;;;;;;25.57;41.89;99398.41;4196866;28;20439;-67
2023/10/30 09:05:24;;;;;;;;;;;;;;;25.57;41.95;99403.78;4208914;28;19924;-64
2023/10/30 09:07:31;;;;;;;;;;;;;;;25.59;41.89;99409.81;4213280;28;19931;-62
2023/10/30 09:09:38;;;;;;;;;;;;;;;25.57;42.19;99395.72;4196749;28;19965;-65
2023/10/30 09:11:44;;;;;;;;;;;;;;;25.56;42.14;99407.50;4196982;28;19926;-61
2023/10/30 09:13:46;;;;;;;;;;;;;;;25.54;42.23;99393.38;4196799;28;19928;-63
2023/10/30 09:15:48;;;;;;;;;;;;;;;25.54;42.29;99388.00;4196590;28;19929;-64
2023/10/30 09:17:49;;;;;;;;;;;;;;;25.52;42.43;99378.22;4201464;28;20305;-64
2023/10/30 09:19:56;;;;;;;;;;;;;;;25.46;42.40;99367.38;4211245;28;20268;-64
2023/10/30 09:21:57;;;;;;;;;;;;;;;25.56;42.26;99384.09;4213088;28;19932;-62
2023/10/30 09:23:59;;;;;;;;;;;;;;;25.57;42.38;99383.06;4208407;28;19924;-62
2023/10/30 09:26:02;;;;;;;;;;;;;;;25.60;42.29;99389.94;4212080;28;20408;-64
2023/10/30 09:28:04;;;;;;;;;;;;;;;25.60;42.34;99392.63;4211261;28;19924;-61
2023/10/30 09:30:06;;;;;;;;;;;;;;;25.60;42.00;99387.25;4200527;28;19928;-61
2023/10/30 09:32:07;;;;;;;;;;;;;;;25.60;42.14;99387.25;4213078;28;19928;-60
2023/10/30 09:34:14;;;;;;;;;;;;;;;25.60;41.93;99390.78;4209033;28;19924;-62
2023/10/30 09:36:15;;;;;;;;;;;;;;;25.61;42.00;99408.59;4204262;28;19947;-60
2023/10/30 09:38:17;;;;;;;;;;;;;;;25.60;42.24;99400.72;4212954;28;19924;-60
2023/10/30 09:40:22;;;;;;;;;;;;;;;25.60;42.03;99398.00;4201799;28;20026;-61
2023/10/30 09:42:26;;;;;;;;;;;;;;;25.58;41.96;99395.50;4212622;28;19924;-63
2023/10/30 09:44:29;;;;;;;;;;;;;;;25.60;42.03;99392.63;4210389;28;19928;-63
2023/10/30 09:46:31;;;;;;;;;;;;;;;25.59;42.38;99399.88;4203637;28;19979;-64
2023/10/30 09:48:33;;;;;;;;;;;;;;;25.60;42.12;99398.00;4211540;28;19932;-61
2023/10/30 09:50:38;;;;;;;;;;;;;;;25.62;42.28;99399.50;4208817;28;19928;-63
2023/10/30 09:52:40;;;;;;;;;;;;;;;25.64;42.19;99404.72;4197192;28;19924;-64
2023/10/30 09:54:44;;;;;;;;;;;;;;;25.62;42.29;99401.38;4198012;28;20035;-61
2023/10/30 09:56:46;;;;;;;;;;;;;;;25.61;42.27;99397.00;4202658;28;19928;-64
2023/10/30 09:58:52;;;;;;;;;;;;;;;25.58;42.08;99395.50;4212796;28;19924;-60
2023/10/30 10:00:54;;;;;;;;;;;;;;;25.57;42.31;99401.09;4203134;28;19940;-60
2023/10/30 10:02:55;;;;;;;;;;;;;;;25.56;42.38;99400.25;4214064;28;19970;-61
2023/10/30 10:04:57;;;;;;;;;;;;;;;25.54;42.22;99396.88;4214771;28;19924;-60
2023/10/30 10:07:05;;;;;;;;;;;;;;;25.54;42.46;99396.06;4199010;28;19946;-60
2023/10/30 10:09:06;;;;;;;;;;;;;;;25.55;42.52;99385.09;4199611;28;19978;-60
2023/10/30 10:11:12;;;;;;;;;;;;;;;25.57;42.41;99383.06;4199431;28;20060;-60
2023/10/30 10:13:15;;;;;;;;;;;;;;;25.58;42.55;99368.59;4199465;28;19928;-61
2023/10/30 10:15:17;;;;;;;;;;;;;;;25.59;42.36;99361.34;4199507;28;20402;-61
2023/10/30 10:17:19;;;;;;;;;;;;;;;25.60;42.05;99355.78;4201153;28;19924;-61
2023/10/30 10:19:25;;;;;;;;;;;;;;;25.59;42.37;99359.50;4216001;28;19924;-59
2023/10/30 10:21:45;;;;;;;;;;;;;;;25.61;42.39;99362.00;4201239;28;19925;-62
2023/10/30 10:23:47;;;;;;;;;;;;;;;25.56;42.57;99351.78;4203401;28;19978;-65
2023/10/30 10:25:52;;;;;;;;;;;;;;;25.57;42.19;99350.75;4209392;28;19959;-64
2023/10/30 10:27:54;;;;;;;;;;;;;;;25.57;42.29;99347.25;4199544;28;19976;-64
2023/10/30 10:29:57;;;;;;;;;;;;;;;25.57;42.52;99339.19;4199528;28;19924;-64
2023/10/30 10:31:59;;;;;;;;;;;;;;;25.59;42.50;99337.97;4199334;28;19929;-64
2023/10/30 10:34:00;;;;;;;;;;;;;;;25.60;42.18;99330.72;4199350;28;19943;-63
2023/10/30 10:36:04;;;;;;;;;;;;;;;25.61;42.43;99335.91;4198119;28;20023;-64
2023/10/30 10:38:06;;;;;;;;;;;;;;;25.61;42.46;99332.38;4199587;28;19924;-64